Time;durP1;ratioP1;P1;durP2;ratioP2;P2;SDS_P1;SDS_P2;PMS_P1;PMS_P2;Temp;Humidity;BMP_temperature;BMP_pressure;BME280_temperature;BME280_humidity;BME280_pressure;Samples;Min_cycle;Max_cycle;Signal;HPM_P1;HPM_P2
2022/02/14 00:00:11;;;;;;;6.57;4.30;;;;;;;1.27;83.37;100433.00;5018979;28;20255;-74
2022/02/14 00:02:41;;;;;;;8.50;4.93;;;;;;;1.25;83.63;100433.00;5018211;28;20675;-74
2022/02/14 00:05:08;;;;;;;7.03;4.60;;;;;;;1.29;83.24;100431.31;5015878;28;20202;-74
2022/02/14 00:07:35;;;;;;;7.13;4.43;;;;;;;1.32;82.66;100426.22;5020493;28;20197;-73
2022/02/14 00:10:02;;;;;;;7.67;4.60;;;;;;;1.29;83.05;100424.47;5019141;28;20310;-74
2022/02/14 00:12:28;;;;;;;7.07;4.67;;;;;;;1.31;82.55;100427.03;5022198;28;20264;-74
2022/02/14 00:14:54;;;;;;;8.10;4.87;;;;;;;1.29;82.01;100419.31;5021875;28;20200;-74
2022/02/14 00:17:22;;;;;;;6.50;4.50;;;;;;;1.25;82.07;100417.59;5027478;28;20549;-74
2022/02/14 00:19:50;;;;;;;7.23;4.80;;;;;;;1.28;81.86;100409.88;5025675;28;20853;-74
2022/02/14 00:22:21;;;;;;;7.50;4.43;;;;;;;1.30;81.37;100412.47;5021769;28;20224;-74
2022/02/14 00:24:48;;;;;;;8.07;4.60;;;;;;;1.32;81.26;100413.38;5024540;28;20223;-74
2022/02/14 00:27:14;;;;;;;7.57;4.67;;;;;;;1.24;81.77;100412.44;5019334;28;20197;-73
2022/02/14 00:29:41;;;;;;;8.93;4.83;;;;;;;1.23;81.39;100411.56;5019793;28;20681;-74
2022/02/14 00:32:08;;;;;;;7.13;4.63;;;;;;;1.26;80.81;100416.72;5019682;28;20210;-74
2022/02/14 00:34:36;;;;;;;8.40;4.50;;;;;;;1.27;80.63;100412.47;5025903;28;20227;-74
2022/02/14 00:37:03;;;;;;;7.10;4.73;;;;;;;1.27;81.07;100408.19;5024363;28;20199;-74
2022/02/14 00:39:30;;;;;;;8.60;4.70;;;;;;;1.27;80.92;100405.59;5028694;28;20252;-74
2022/02/14 00:41:58;;;;;;;7.37;4.53;;;;;;;1.25;80.31;100407.31;5028895;28;20223;-74
2022/02/14 00:44:24;;;;;;;8.63;4.93;;;;;;;1.25;80.92;100406.44;5024674;28;20197;-74
2022/02/14 00:46:51;;;;;;;8.20;4.60;;;;;;;1.21;80.55;100410.69;5025751;28;20215;-74
2022/02/14 00:49:18;;;;;;;7.87;5.00;;;;;;;1.18;80.62;100402.97;5018792;28;20228;-74
2022/02/14 00:51:45;;;;;;;8.53;4.80;;;;;;;1.21;80.45;100399.56;5016353;28;20605;-74
2022/02/14 00:54:12;;;;;;;7.37;4.83;;;;;;;1.15;80.75;100396.94;5018345;28;20200;-74
2022/02/14 00:56:39;;;;;;;7.17;4.60;;;;;;;1.16;80.08;100398.66;5019339;28;20206;-74
2022/02/14 00:59:05;;;;;;;5.97;4.33;;;;;;;1.19;80.26;100396.13;5022940;28;20235;-75
2022/02/14 01:01:32;;;;;;;6.07;4.50;;;;;;;1.18;79.53;100395.28;5022381;28;20212;-73
2022/02/14 01:03:58;;;;;;;7.73;4.90;;;;;;;1.18;79.67;100391.81;5022223;28;20207;-73
2022/02/14 01:06:26;;;;;;;8.83;4.33;;;;;;;1.13;80.17;100399.50;5025908;28;20212;-74
2022/02/14 01:08:54;;;;;;;9.37;5.03;;;;;;;1.13;79.31;100399.50;5019402;28;20303;-74
2022/02/14 01:11:21;;;;;;;6.67;4.93;;;;;;;1.15;79.58;100389.25;5022889;28;20204;-74
2022/02/14 01:13:48;;;;;;;8.60;4.83;;;;;;;1.12;79.79;100390.06;5028015;28;20202;-74
2022/02/14 01:16:14;;;;;;;6.83;4.70;;;;;;;1.09;79.27;100390.91;5026960;28;20292;-74
2022/02/14 01:18:40;;;;;;;7.63;4.67;;;;;;;1.09;78.99;100385.78;5026251;28;20196;-74
2022/02/14 01:21:07;;;;;;;9.50;4.63;;;;;;;1.14;78.25;100378.09;5024028;28;20711;-74
2022/02/14 01:23:33;;;;;;;5.50;4.17;;;;;;;1.20;77.64;100380.72;5027910;28;20192;-74
2022/02/14 01:26:01;;;;;;;7.17;4.77;;;;;;;1.19;78.13;100371.28;5020475;28;20201;-74
2022/02/14 01:28:27;;;;;;;5.90;4.37;;;;;;;1.19;77.50;100367.88;5021462;28;20203;-74
2022/02/14 01:30:54;;;;;;;8.40;4.50;;;;;;;1.15;77.54;100361.00;5016785;28;20593;-74
2022/02/14 01:33:21;;;;;;;7.50;4.60;;;;;;;1.12;78.03;100357.53;5016827;28;20231;-74
2022/02/14 01:35:50;;;;;;;8.47;4.97;;;;;;;1.12;77.37;100359.25;5019472;28;20211;-74
2022/02/14 01:38:17;;;;;;;7.07;4.50;;;;;;;1.05;77.46;100355.75;5020556;28;20204;-74
2022/02/14 01:40:44;;;;;;;10.83;4.70;;;;;;;1.12;76.91;100347.25;5021545;28;20228;-74
2022/02/14 01:43:15;;;;;;;7.23;4.80;;;;;;;1.10;77.03;100353.25;5022612;28;20203;-74
2022/02/14 01:45:41;;;;;;;6.23;4.60;;;;;;;1.09;76.66;100344.69;5021359;28;20241;-74
2022/02/14 01:48:08;;;;;;;7.70;4.90;;;;;;;1.07;76.95;100346.38;5024090;28;20211;-74
2022/02/14 01:50:35;;;;;;;6.63;4.40;;;;;;;1.07;76.69;100341.25;5021342;28;20255;-74
2022/02/14 01:53:02;;;;;;;5.80;4.10;;;;;;;1.10;76.24;100341.25;5022837;28;20723;-73
2022/02/14 01:55:28;;;;;;;6.90;4.40;;;;;;;1.08;76.13;100331.84;5023206;28;20219;-74
2022/02/14 01:57:55;;;;;;;6.90;4.47;;;;;;;1.01;76.82;100330.91;5020249;28;20707;-74
2022/02/14 02:00:25;;;;;;;6.60;4.60;;;;;;;0.99;76.32;100324.91;5014082;28;20233;-73
2022/02/14 02:02:52;;;;;;;5.80;4.57;;;;;;;1.03;76.49;100321.50;5019875;28;20256;-73
2022/02/14 02:05:18;;;;;;;6.70;4.67;;;;;;;1.03;76.52;100320.66;5014354;28;20205;-74
2022/02/14 02:07:45;;;;;;;8.57;4.30;;;;;;;0.93;76.86;100317.16;5020330;28;20223;-73
2022/02/14 02:10:12;;;;;;;8.47;4.70;;;;;;;1.00;76.58;100305.22;5016049;28;20310;-74
2022/02/14 02:12:47;;;;;;;6.83;4.60;;;;;;;0.97;76.36;100303.50;5018155;28;21944;-74
2022/02/14 02:15:14;;;;;;;7.80;4.60;;;;;;;0.93;76.58;100300.06;5018879;28;20677;-73
2022/02/14 02:17:43;;;;;;;5.13;3.97;;;;;;;0.91;76.99;100298.31;5019657;28;20204;-74
2022/02/14 02:20:14;;;;;;;7.17;4.77;;;;;;;0.92;76.27;100298.31;5025881;28;20302;-74
2022/02/14 02:22:41;;;;;;;6.10;4.40;;;;;;;0.89;76.34;100302.56;5020839;28;20196;-74
2022/02/14 02:25:09;;;;;;;7.70;4.33;;;;;;;0.87;76.77;100300.00;5015773;28;20200;-74
2022/02/14 02:27:36;;;;;;;6.27;4.07;;;;;;;0.86;76.28;100295.72;5022063;28;20262;-74
2022/02/14 02:30:06;;;;;;;9.20;4.60;;;;;;;0.83;76.53;100297.41;5024857;28;20705;-74
2022/02/14 02:32:33;;;;;;;9.10;4.93;;;;;;;0.81;76.75;100291.38;5018025;28;20233;-74
2022/02/14 02:35:01;;;;;;;8.40;4.40;;;;;;;0.79;76.84;100291.34;5026032;28;20855;-74
2022/02/14 02:37:28;;;;;;;6.33;4.40;;;;;;;0.74;77.45;100296.47;5022107;28;20216;-75
2022/02/14 02:39:55;;;;;;;6.37;4.60;;;;;;;0.71;77.16;100291.31;5021580;28;20255;-75
2022/02/14 02:42:24;;;;;;;5.63;4.13;;;;;;;0.67;77.72;100294.69;5022959;28;20215;-75
2022/02/14 02:44:52;;;;;;;6.80;4.80;;;;;;;0.62;77.73;100291.22;5019384;28;20261;-75
2022/02/14 02:47:21;;;;;;;6.23;4.40;;;;;;;0.63;77.41;100287.81;5024073;28;20192;-74
2022/02/14 02:49:47;;;;;;;8.57;4.67;;;;;;;0.61;78.34;100286.06;5019982;28;20329;-74
2022/02/14 02:52:16;;;;;;;8.77;5.00;;;;;;;0.61;77.97;100274.09;5021228;28;20224;-74
2022/02/14 02:54:43;;;;;;;8.47;4.87;;;;;;;0.60;77.47;100276.66;5019997;28;20201;-74
2022/02/14 02:57:11;;;;;;;6.77;4.90;;;;;;;0.59;77.91;100272.38;5023932;28;20194;-74
2022/02/14 02:59:39;;;;;;;7.93;4.87;;;;;;;0.55;78.42;100281.75;5021200;28;20313;-74
2022/02/14 03:02:07;;;;;;;9.13;4.87;;;;;;;0.48;78.40;100275.69;5016193;28;20208;-74
2022/02/14 03:04:34;;;;;;;6.60;4.30;;;;;;;0.48;78.58;100279.97;5014223;28;20204;-75
2022/02/14 03:07:01;;;;;;;8.00;4.90;;;;;;;0.40;79.26;100271.34;5022714;28;20194;-74
2022/02/14 03:09:27;;;;;;;8.10;4.83;;;;;;;0.39;78.92;100280.75;5018230;28;20235;-74
2022/02/14 03:11:54;;;;;;;8.53;4.80;;;;;;;0.31;79.67;100266.97;5020095;28;20569;-74
2022/02/14 03:14:21;;;;;;;8.40;5.20;;;;;;;0.31;79.25;100267.84;5021022;28;20249;-73
2022/02/14 03:16:49;;;;;;;8.17;4.87;;;;;;;0.31;79.55;100264.41;5015131;28;20206;-73
2022/02/14 03:19:15;;;;;;;10.83;5.00;;;;;;;0.26;79.50;100263.50;5019450;28;20212;-73
2022/02/14 03:21:42;;;;;;;8.67;4.87;;;;;;;0.23;80.06;100264.34;5020758;28;20238;-74
2022/02/14 03:24:09;;;;;;;7.87;5.27;;;;;;;0.16;80.55;100262.56;5020387;28;20283;-74
2022/02/14 03:26:35;;;;;;;7.77;4.97;;;;;;;0.14;80.49;100257.44;5020545;28;20211;-75
2022/02/14 03:29:02;;;;;;;7.47;4.57;;;;;;;0.11;80.94;100252.25;5019017;28;20239;-75
2022/02/14 03:31:28;;;;;;;8.90;5.40;;;;;;;0.06;80.92;100251.34;5023515;28;20200;-75
2022/02/14 03:33:56;;;;;;;7.60;4.87;;;;;;;0.05;81.21;100253.88;5018718;28;20215;-74
2022/02/14 03:36:23;;;;;;;7.83;5.23;;;;;;;0.01;81.13;100247.88;5019284;28;20204;-75
2022/02/14 03:38:50;;;;;;;9.47;5.37;;;;;;;-0.04;81.91;100239.28;5019626;28;20207;-75
2022/02/14 03:41:18;;;;;;;8.13;5.13;;;;;;;-0.07;82.50;100237.53;5022073;28;20241;-75
2022/02/14 03:43:44;;;;;;;9.73;5.33;;;;;;;-0.06;82.14;100244.38;5020828;28;20216;-75
2022/02/14 03:46:11;;;;;;;9.20;4.87;;;;;;;-0.07;82.39;100234.09;5026476;28;20204;-75
2022/02/14 03:48:38;;;;;;;8.70;4.87;;;;;;;-0.10;82.44;100241.78;5021320;28;20203;-75
2022/02/14 03:51:06;;;;;;;8.80;5.20;;;;;;;-0.11;82.89;100232.34;5020791;28;20230;-75
2022/02/14 03:53:32;;;;;;;8.40;4.77;;;;;;;-0.13;82.86;100228.91;5023845;28;20243;-75
2022/02/14 03:55:59;;;;;;;7.23;4.90;;;;;;;-0.17;83.00;100225.47;5023253;28;20549;-75
2022/02/14 03:58:25;;;;;;;8.73;5.20;;;;;;;-0.22;83.67;100230.53;5028675;28;20232;-75
2022/02/14 04:00:52;;;;;;;8.83;5.33;;;;;;;-0.26;83.82;100230.50;5025591;28;20216;-74
2022/02/14 04:03:18;;;;;;;6.70;4.93;;;;;;;-0.23;83.50;100227.94;5020787;28;20192;-75
2022/02/14 04:05:45;;;;;;;6.80;4.70;;;;;;;-0.25;83.54;100220.22;5025182;28;20550;-75
2022/02/14 04:08:13;;;;;;;9.20;5.33;;;;;;;-0.27;83.68;100219.38;5022579;28;20275;-75
2022/02/14 04:10:40;;;;;;;10.27;6.03;;;;;;;-0.26;83.80;100212.56;5027343;28;20319;-75
2022/02/14 04:13:06;;;;;;;12.47;5.43;;;;;;;-0.29;84.09;100217.63;5023556;28;20211;-75
2022/02/14 04:15:33;;;;;;;9.77;5.50;;;;;;;-0.32;84.54;100218.44;5021980;28;20219;-75
2022/02/14 04:17:59;;;;;;;8.77;5.03;;;;;;;-0.29;83.75;100213.38;5026565;28;20200;-74
2022/02/14 04:20:26;;;;;;;8.27;5.40;;;;;;;-0.29;84.34;100208.25;5024294;28;20220;-75
2022/02/14 04:22:52;;;;;;;8.13;5.30;;;;;;;-0.33;84.38;100200.53;5021220;28;20195;-74
2022/02/14 04:25:20;;;;;;;8.03;5.07;;;;;;;-0.40;84.79;100197.88;5028437;28;20219;-75
2022/02/14 04:27:47;;;;;;;9.90;6.03;;;;;;;-0.38;84.29;100197.91;5023486;28;20315;-75
2022/02/14 04:30:14;;;;;;;11.80;5.67;;;;;;;-0.39;84.56;100194.47;5020912;28;20224;-74
2022/02/14 04:32:42;;;;;;;10.37;5.87;;;;;;;-0.37;84.62;100194.47;5022871;28;20213;-75
2022/02/14 04:35:08;;;;;;;9.47;5.63;;;;;;;-0.39;84.58;100193.59;5024682;28;20546;-75
2022/02/14 04:37:35;;;;;;;8.70;5.40;;;;;;;-0.41;84.69;100180.78;5023427;28;20204;-75
2022/02/14 04:40:01;;;;;;;9.20;5.47;;;;;;;-0.43;85.01;100172.22;5020918;28;20231;-75
2022/02/14 04:42:29;;;;;;;9.03;5.73;;;;;;;-0.42;85.20;100181.63;5020325;28;20211;-75
2022/02/14 04:44:56;;;;;;;8.93;5.70;;;;;;;-0.40;84.99;100167.13;5019628;28;20212;-75
2022/02/14 04:47:22;;;;;;;7.43;5.10;;;;;;;-0.41;84.64;100164.56;5018626;28;20207;-74
2022/02/14 04:49:49;;;;;;;9.80;5.07;;;;;;;-0.43;84.55;100174.78;5021302;28;20232;-74
2022/02/14 04:52:15;;;;;;;8.70;5.60;;;;;;;-0.43;84.98;100166.25;5024072;28;20211;-75
2022/02/14 04:54:41;;;;;;;8.17;5.53;;;;;;;-0.45;84.79;100165.38;5022560;28;20226;-75
2022/02/14 04:57:08;;;;;;;9.33;5.63;;;;;;;-0.44;84.46;100169.63;5027162;28;20212;-74
2022/02/14 04:59:35;;;;;;;8.97;5.83;;;;;;;-0.47;85.18;100162.78;5027860;28;20230;-74
2022/02/14 05:02:02;;;;;;;10.50;5.33;;;;;;;-0.54;85.49;100163.56;5026950;28;20200;-74
2022/02/14 05:04:30;;;;;;;8.60;5.43;;;;;;;-0.58;86.04;100162.66;5029533;28;20760;-74
2022/02/14 05:06:56;;;;;;;10.43;5.97;;;;;;;-0.57;85.84;100164.38;5021721;28;20204;-74
2022/02/14 05:09:23;;;;;;;10.23;5.70;;;;;;;-0.56;85.59;100160.13;5025057;28;20303;-74
2022/02/14 05:11:49;;;;;;;8.50;5.23;;;;;;;-0.57;85.44;100149.00;5026434;28;20685;-74
2022/02/14 05:14:16;;;;;;;9.70;5.50;;;;;;;-0.53;85.33;100154.16;5021402;28;20204;-74
2022/02/14 05:16:43;;;;;;;7.70;5.63;;;;;;;-0.55;85.24;100153.28;5023520;28;20215;-74
2022/02/14 05:19:10;;;;;;;9.47;5.47;;;;;;;-0.52;84.72;100148.22;5026038;28;20269;-74
2022/02/14 05:21:36;;;;;;;8.70;5.10;;;;;;;-0.62;85.57;100142.13;5019489;28;20212;-74
2022/02/14 05:24:03;;;;;;;11.50;7.80;;;;;;;-0.62;85.39;100144.69;5020371;28;20314;-74
2022/02/14 05:26:29;;;;;;;34.73;18.93;;;;;;;-0.60;85.54;100125.06;5023615;28;20204;-74
2022/02/14 05:28:56;;;;;;;30.97;14.43;;;;;;;-0.59;85.15;100137.88;5025701;28;20274;-74
2022/02/14 05:31:23;;;;;;;53.13;24.90;;;;;;;-0.58;84.88;100131.94;5027642;28;20196;-74
2022/02/14 05:33:51;;;;;;;47.97;23.27;;;;;;;-0.57;85.16;100136.19;5024120;28;20228;-74
2022/02/14 05:36:18;;;;;;;18.50;10.13;;;;;;;-0.56;84.69;100131.97;5020853;28;20201;-74
2022/02/14 05:38:45;;;;;;;21.67;12.47;;;;;;;-0.61;85.36;100121.66;5026577;28;20214;-74
2022/02/14 05:41:11;;;;;;;15.03;8.33;;;;;;;-0.60;85.20;100119.94;5020056;28;20330;-74
2022/02/14 05:43:38;;;;;;;12.47;6.70;;;;;;;-0.52;84.76;100125.16;5015798;28;20764;-73
2022/02/14 05:46:05;;;;;;;8.23;5.80;;;;;;;-0.52;84.38;100125.16;5016276;28;20200;-73
2022/02/14 05:48:31;;;;;;;10.20;5.93;;;;;;;-0.55;84.68;100123.41;5019699;28;20210;-74
2022/02/14 05:50:59;;;;;;;9.40;5.80;;;;;;;-0.60;85.08;100130.19;5021945;28;20589;-73
2022/02/14 05:53:26;;;;;;;9.40;5.87;;;;;;;-0.60;84.79;100141.31;5022038;28;20224;-74
2022/02/14 05:55:52;;;;;;;10.37;5.87;;;;;;;-0.59;84.76;100131.91;5025128;28;20199;-74
2022/02/14 05:58:19;;;;;;;10.17;5.93;;;;;;;-0.55;84.74;100143.06;5027738;28;20669;-74
2022/02/14 06:00:45;;;;;;;10.07;5.70;;;;;;;-0.55;84.71;100145.63;5021089;28;20757;-75
2022/02/14 06:03:11;;;;;;;9.67;5.77;;;;;;;-0.59;84.97;100137.88;5023225;28;20218;-75
2022/02/14 06:05:38;;;;;;;8.60;5.27;;;;;;;-0.61;85.10;100141.28;5020360;28;20210;-73
2022/02/14 06:08:06;;;;;;;9.17;5.63;;;;;;;-0.68;85.48;100132.66;5026321;28;20196;-74
2022/02/14 06:10:32;;;;;;;9.07;5.80;;;;;;;-0.72;85.54;100130.94;5021344;28;20313;-74
2022/02/14 06:12:59;;;;;;;11.53;6.13;;;;;;;-0.67;85.58;100128.41;5019031;28;20223;-74
2022/02/14 06:15:25;;;;;;;11.07;5.70;;;;;;;-0.65;85.35;100137.84;5024122;28;20271;-74
2022/02/14 06:17:52;;;;;;;11.00;6.50;;;;;;;-0.62;85.43;100132.72;5022464;28;20208;-74
2022/02/14 06:20:19;;;;;;;8.50;6.03;;;;;;;-0.61;85.29;100125.91;5027924;28;20282;-74
2022/02/14 06:22:45;;;;;;;8.10;5.40;;;;;;;-0.57;85.34;100118.28;5024210;28;20215;-74
2022/02/14 06:25:13;;;;;;;9.47;5.83;;;;;;;-0.55;84.86;100117.44;5023142;28;20192;-75
2022/02/14 06:27:40;;;;;;;8.90;5.63;;;;;;;-0.52;84.76;100125.16;5018881;28;20210;-73
2022/02/14 06:30:07;;;;;;;12.53;5.83;;;;;;;-0.51;84.55;100121.75;5016014;28;20227;-73
2022/02/14 06:32:33;;;;;;;10.43;6.30;;;;;;;-0.53;84.43;100131.13;5017276;28;20208;-74
2022/02/14 06:35:02;;;;;;;7.93;5.37;;;;;;;-0.49;84.20;100128.63;5023956;28;20390;-72
2022/02/14 06:37:29;;;;;;;9.83;5.90;;;;;;;-0.53;84.75;100128.56;5015102;28;20220;-74
2022/02/14 06:39:55;;;;;;;10.33;5.97;;;;;;;-0.51;84.55;100119.19;5021568;28;20224;-74
2022/02/14 06:42:24;;;;;;;10.70;6.00;;;;;;;-0.48;84.14;100129.47;5022530;28;20223;-74
2022/02/14 06:44:50;;;;;;;9.60;5.50;;;;;;;-0.40;83.65;100120.19;5018012;28;20204;-74
2022/02/14 06:47:16;;;;;;;10.07;6.00;;;;;;;-0.40;83.52;100128.72;5018125;28;20210;-73
2022/02/14 06:49:43;;;;;;;9.90;5.50;;;;;;;-0.37;83.43;100133.00;5022987;28;20713;-73
2022/02/14 06:52:09;;;;;;;8.77;5.57;;;;;;;-0.33;83.40;100127.06;5018638;28;20670;-74
2022/02/14 06:54:35;;;;;;;11.50;6.17;;;;;;;-0.26;82.62;100133.97;5018015;28;20289;-73
2022/02/14 06:57:02;;;;;;;7.57;4.97;;;;;;;-0.23;82.88;100128.00;5016955;28;20283;-73
2022/02/14 06:59:30;;;;;;;11.97;5.20;;;;;;;-0.21;82.32;100126.34;5017436;28;20216;-73
2022/02/14 07:01:56;;;;;;;9.20;5.33;;;;;;;-0.18;82.41;100125.50;5020261;28;20211;-73
2022/02/14 07:04:22;;;;;;;8.53;5.40;;;;;;;-0.15;82.03;100133.22;5020128;28;20565;-75
2022/02/14 07:06:49;;;;;;;7.53;5.37;;;;;;;-0.10;81.77;100124.72;5014365;28;20209;-74
2022/02/14 07:09:15;;;;;;;8.63;5.67;;;;;;;-0.08;81.84;100124.75;5019536;28;20224;-74
2022/02/14 07:11:44;;;;;;;9.57;5.53;;;;;;;-0.03;81.63;100128.22;5021527;28;20277;-75
2022/02/14 07:14:11;;;;;;;10.27;5.80;;;;;;;0.01;81.25;100124.81;5021149;28;20212;-74
2022/02/14 07:16:39;;;;;;;7.23;4.83;;;;;;;0.05;81.01;100125.72;5016379;28;20208;-75
2022/02/14 07:19:06;;;;;;;9.00;5.37;;;;;;;0.11;80.45;100129.19;5016742;28;20748;-75
2022/02/14 07:21:32;;;;;;;9.53;5.20;;;;;;;0.20;79.65;100137.81;5021240;28;20205;-74
2022/02/14 07:23:59;;;;;;;8.03;5.20;;;;;;;0.24;79.63;100129.28;5016510;28;20215;-75
2022/02/14 07:26:25;;;;;;;8.23;5.30;;;;;;;0.29;79.41;100125.91;5017092;28;20613;-75
2022/02/14 07:28:52;;;;;;;7.77;5.20;;;;;;;0.35;79.36;100125.97;5025280;28;20657;-74
2022/02/14 07:31:22;;;;;;;6.73;5.10;;;;;;;0.43;78.57;100122.59;5019820;28;20228;-74
2022/02/14 07:33:52;;;;;;;9.73;5.27;;;;;;;0.48;78.55;100119.22;5022290;28;20219;-73
2022/02/14 07:36:19;;;;;;;6.90;4.63;;;;;;;0.54;77.88;100116.69;5017902;28;20200;-75
2022/02/14 07:38:45;;;;;;;9.50;5.70;;;;;;;0.61;77.60;100120.16;5016084;28;20692;-72
2022/02/14 07:41:12;;;;;;;9.10;5.27;;;;;;;0.70;76.93;100125.38;5017832;28;20204;-74
2022/02/14 07:43:38;;;;;;;8.17;5.00;;;;;;;0.79;76.50;100126.25;5017467;28;20220;-74
2022/02/14 07:46:04;;;;;;;7.83;5.40;;;;;;;0.81;76.62;100135.69;5018895;28;20192;-74
2022/02/14 07:48:31;;;;;;;8.70;5.07;;;;;;;0.86;76.66;100126.31;5015269;28;20195;-73
2022/02/14 07:50:59;;;;;;;6.40;4.57;;;;;;;0.99;75.95;100127.22;5015580;28;20484;-74
2022/02/14 07:53:25;;;;;;;9.37;5.13;;;;;;;1.08;74.99;100129.81;5013077;28;20200;-74
2022/02/14 07:55:51;;;;;;;7.50;4.60;;;;;;;1.15;74.64;100120.44;5018720;28;20210;-74
2022/02/14 07:58:18;;;;;;;8.47;5.10;;;;;;;1.18;74.92;100117.03;5017542;28;20203;-74
2022/02/14 08:00:44;;;;;;;7.63;4.67;;;;;;;1.20;74.85;100118.75;5019402;28;20220;-74
2022/02/14 08:03:11;;;;;;;8.47;5.00;;;;;;;1.28;74.00;100117.06;5015732;28;20208;-74
2022/02/14 08:05:37;;;;;;;7.03;4.53;;;;;;;1.35;74.19;100115.38;5016829;28;20284;-74
2022/02/14 08:08:05;;;;;;;7.80;4.97;;;;;;;1.41;73.71;100125.69;5016294;28;20686;-74
2022/02/14 08:10:31;;;;;;;7.90;5.00;;;;;;;1.48;73.52;100119.72;5015373;28;20223;-75
2022/02/14 08:12:58;;;;;;;9.27;5.20;;;;;;;1.55;72.90;100124.84;5018085;28;20204;-74
2022/02/14 08:15:24;;;;;;;8.03;4.77;;;;;;;1.61;72.20;100125.72;5025660;28;20222;-74
2022/02/14 08:17:51;;;;;;;7.67;4.90;;;;;;;1.69;72.30;100124.03;5021615;28;20214;-75
2022/02/14 08:20:17;;;;;;;8.70;4.93;;;;;;;1.71;72.69;100126.63;5016205;28;20444;-75
2022/02/14 08:22:46;;;;;;;8.87;4.90;;;;;;;1.82;71.31;100124.91;5019015;28;20289;-74
2022/02/14 08:25:13;;;;;;;7.10;4.77;;;;;;;1.87;71.81;100123.22;5022237;28;20192;-75
2022/02/14 08:27:40;;;;;;;10.17;4.93;;;;;;;1.95;71.38;100125.78;5013914;28;20784;-74
2022/02/14 08:30:07;;;;;;;10.73;5.00;;;;;;;2.02;70.31;100118.94;5013749;28;20215;-74
2022/02/14 08:32:34;;;;;;;9.90;4.97;;;;;;;2.12;70.52;100123.22;5022092;28;20215;-75
2022/02/14 08:35:00;;;;;;;7.03;5.10;;;;;;;2.18;69.91;100120.69;5026828;28;20788;-74
2022/02/14 08:37:26;;;;;;;7.73;4.77;;;;;;;2.27;69.44;100117.25;5020676;28;20314;-74
2022/02/14 08:39:53;;;;;;;6.13;4.20;;;;;;;2.37;68.79;100118.09;5022650;28;20227;-74
2022/02/14 08:42:21;;;;;;;7.50;4.60;;;;;;;2.43;68.69;100112.94;5025374;28;20209;-72
2022/02/14 08:44:47;;;;;;;7.50;4.47;;;;;;;2.50;67.94;100108.63;5020456;28;20295;-75
2022/02/14 08:47:14;;;;;;;8.70;4.63;;;;;;;2.60;68.09;100107.75;5021789;28;20235;-75
2022/02/14 08:49:40;;;;;;;7.40;4.77;;;;;;;2.63;68.26;100110.34;5023240;28;20227;-75
2022/02/14 08:52:07;;;;;;;10.43;4.77;;;;;;;2.72;67.22;100107.72;5024267;28;20211;-74
2022/02/14 08:54:34;;;;;;;8.10;4.57;;;;;;;2.77;67.75;100100.00;5026140;28;20239;-74
2022/02/14 08:57:01;;;;;;;8.43;4.60;;;;;;;2.86;67.71;100101.72;5021760;28;20223;-74
2022/02/14 08:59:29;;;;;;;7.17;4.20;;;;;;;2.96;67.01;100100.81;5025046;28;20624;-74
2022/02/14 09:01:56;;;;;;;9.67;4.97;;;;;;;3.06;66.58;100097.34;5023514;28;20195;-74
2022/02/14 09:04:22;;;;;;;6.43;4.50;;;;;;;3.11;66.63;100099.91;5022225;28;20283;-74
2022/02/14 09:06:49;;;;;;;7.10;4.33;;;;;;;3.18;66.52;100097.31;5025616;28;20239;-74
2022/02/14 09:09:20;;;;;;;8.03;4.20;;;;;;;3.27;66.16;100096.38;5026167;28;20220;-74
2022/02/14 09:11:46;;;;;;;9.37;5.10;;;;;;;3.32;66.68;100098.94;5014972;28;20208;-75
2022/02/14 09:14:13;;;;;;;8.73;4.47;;;;;;;3.37;65.71;100086.91;5020458;28;20219;-74
2022/02/14 09:16:42;;;;;;;6.63;4.37;;;;;;;3.47;65.01;100093.72;5022377;28;20211;-75
2022/02/14 09:19:10;;;;;;;5.70;4.23;;;;;;;3.54;64.39;100092.81;5024363;28;20224;-75
2022/02/14 09:21:36;;;;;;;6.33;4.27;;;;;;;3.63;64.36;100093.63;5020173;28;20625;-74
2022/02/14 09:24:03;;;;;;;5.43;4.20;;;;;;;3.66;64.17;100086.72;5021244;28;20201;-75
2022/02/14 09:26:30;;;;;;;4.80;3.97;;;;;;;3.77;64.32;100087.50;5020142;28;20199;-74
2022/02/14 09:28:56;;;;;;;4.77;3.73;;;;;;;3.85;64.45;100079.69;5025035;28;20227;-75
2022/02/14 09:31:23;;;;;;;6.47;4.50;;;;;;;3.90;64.04;100074.53;5017805;28;20211;-74
2022/02/14 09:33:50;;;;;;;6.63;4.00;;;;;;;3.99;63.58;100079.59;5017533;28;20212;-74
2022/02/14 09:36:18;;;;;;;7.70;4.30;;;;;;;4.09;62.93;100082.97;5025315;28;20227;-75
2022/02/14 09:38:48;;;;;;;7.17;3.70;;;;;;;4.16;62.73;100082.91;5028546;28;20212;-75
2022/02/14 09:41:16;;;;;;;7.20;4.20;;;;;;;4.22;63.66;100069.13;5020439;28;20207;-74
2022/02/14 09:43:43;;;;;;;8.33;4.13;;;;;;;4.23;62.96;100078.56;5025989;28;20208;-74
2022/02/14 09:46:11;;;;;;;6.30;4.17;;;;;;;4.31;62.63;100078.47;5023253;28;20250;-74
2022/02/14 09:48:41;;;;;;;6.47;4.30;;;;;;;4.38;61.52;100084.44;5014862;28;20678;-73
2022/02/14 09:51:09;;;;;;;8.20;3.90;;;;;;;4.49;61.22;100082.63;5018823;28;20851;-73
2022/02/14 09:53:36;;;;;;;7.27;3.97;;;;;;;4.57;60.49;100095.44;5017766;28;20271;-75
2022/02/14 09:56:03;;;;;;;7.00;3.73;;;;;;;4.63;60.55;100092.81;5017407;28;20762;-75
2022/02/14 09:58:30;;;;;;;5.30;4.03;;;;;;;4.67;60.47;100092.75;5024673;28;20195;-75
2022/02/14 10:00:56;;;;;;;5.70;4.10;;;;;;;4.80;60.04;100092.63;5023652;28;20238;-75
2022/02/14 10:03:24;;;;;;;5.77;4.10;;;;;;;4.80;58.68;100102.94;5021811;28;20206;-75
2022/02/14 10:05:53;;;;;;;5.00;3.97;;;;;;;4.83;59.29;100098.59;5020830;28;20684;-75
2022/02/14 10:08:23;;;;;;;6.77;4.23;;;;;;;4.91;59.03;100098.53;5025770;28;20200;-75
2022/02/14 10:10:50;;;;;;;5.07;3.83;;;;;;;4.94;59.08;100101.06;5021552;28;20539;-75
2022/02/14 10:13:32;;;;;;;5.63;4.03;;;;;;;5.06;58.62;100092.31;5017226;28;20263;-74
2022/02/14 10:15:59;;;;;;;7.23;3.97;;;;;;;5.12;58.26;100087.94;5016478;28;20228;-74
2022/02/14 10:18:27;;;;;;;7.57;4.50;;;;;;;5.17;58.46;100090.50;5021157;28;20211;-75
2022/02/14 10:21:14;;;;;;;7.77;5.07;;;;;;;5.28;57.36;100092.94;5015280;28;20235;-74
2022/02/14 10:23:57;;;;;;;10.03;5.97;;;;;;;5.34;57.21;100092.00;5021055;28;20223;-75
2022/02/14 10:26:27;;;;;;;9.33;4.97;;;;;;;5.34;58.97;100085.09;5018916;28;20275;-75
2022/02/14 10:28:53;;;;;;;6.97;4.33;;;;;;;5.46;57.68;100091.81;5019943;28;20217;-75
2022/02/14 10:31:20;;;;;;;7.77;4.70;;;;;;;5.54;57.99;100090.00;5019660;28;20199;-74
2022/02/14 10:33:49;;;;;;;8.57;4.47;;;;;;;5.57;57.38;100089.09;5020185;28;20685;-74
2022/02/14 10:36:25;;;;;;;6.20;3.87;;;;;;;5.65;57.14;100088.09;5016944;28;20679;-74
2022/02/14 10:38:53;;;;;;;5.33;3.63;;;;;;;5.75;57.54;100082.78;5019525;28;20223;-74
2022/02/14 10:41:19;;;;;;;7.23;3.57;;;;;;;5.82;57.23;100087.88;5022740;28;20211;-74
2022/02/14 10:43:46;;;;;;;6.07;3.70;;;;;;;5.88;56.34;100087.75;5021379;28;20215;-75
2022/02/14 10:46:20;;;;;;;6.70;3.40;;;;;;;5.91;55.98;100075.66;5018101;28;20200;-76
2022/02/14 10:48:47;;;;;;;7.07;3.93;;;;;;;5.96;55.41;100084.22;5017011;28;20904;-74
2022/02/14 10:51:18;;;;;;;5.13;3.77;;;;;;;6.06;56.19;100072.84;5015333;28;20192;-75
2022/02/14 10:53:44;;;;;;;6.27;3.80;;;;;;;6.10;55.33;100071.91;5019565;28;20254;-74
2022/02/14 10:56:14;;;;;;;7.63;3.97;;;;;;;6.15;56.32;100075.28;5023722;28;20220;-76
2022/02/14 10:58:41;;;;;;;6.23;4.07;;;;;;;6.21;55.52;100075.19;5018187;28;20200;-74
2022/02/14 11:01:10;;;;;;;4.70;3.80;;;;;;;6.25;55.39;100069.06;5016019;28;20685;-74
2022/02/14 11:03:38;;;;;;;5.87;4.30;;;;;;;6.33;55.73;100073.25;5022853;28;20218;-74
2022/02/14 11:06:06;;;;;;;5.60;3.90;;;;;;;6.39;54.60;100063.66;5019046;28;20266;-74
2022/02/14 11:08:34;;;;;;;7.83;3.73;;;;;;;6.39;54.43;100065.41;5018752;28;20220;-75
2022/02/14 11:11:04;;;;;;;5.73;3.87;;;;;;;6.47;54.49;100067.84;5023217;28;20326;-74
2022/02/14 11:13:33;;;;;;;7.97;4.30;;;;;;;6.47;53.60;100060.91;5013132;28;20732;-74
2022/02/14 11:16:00;;;;;;;5.03;3.57;;;;;;;6.50;54.48;100055.69;5015341;28;20224;-75
2022/02/14 11:18:31;;;;;;;6.50;4.27;;;;;;;6.57;54.79;100051.25;5016382;28;20200;-74
2022/02/14 11:20:59;;;;;;;4.13;3.40;;;;;;;6.69;54.72;100045.84;5011925;28;20957;-75
2022/02/14 11:23:30;;;;;;;6.73;4.30;;;;;;;6.77;54.96;100046.56;5019011;28;20197;-75
2022/02/14 11:26:03;;;;;;;7.20;3.97;;;;;;;6.81;54.26;100047.34;5018846;28;20227;-75
2022/02/14 11:28:36;;;;;;;5.67;3.83;;;;;;;6.86;52.60;100045.50;5018427;28;21004;-74